createdAt,value
2022-10-26T05:12:09.721Z,0.00
2022-10-26T05:13:09.743Z,0.00
2022-10-26T05:14:09.784Z,0.00
2022-10-26T05:15:09.826Z,0.00
2022-10-26T05:16:09.876Z,0.00
2022-10-26T05:17:09.943Z,0.00
2022-10-26T05:18:09.993Z,0.00
2022-10-26T05:19:10.009Z,0.00
2022-10-26T05:20:10.057Z,0.00
2022-10-26T05:21:10.104Z,0.00
2022-10-26T05:22:10.151Z,0.00
2022-10-26T05:23:10.221Z,0.00
2022-10-26T05:24:12.480Z,0.00
2022-10-26T05:25:11.195Z,0.00
2022-10-26T05:26:10.344Z,0.00
2022-10-26T05:27:10.390Z,0.00
2022-10-26T05:28:10.440Z,0.00
2022-10-26T05:29:10.513Z,0.00
2022-10-26T05:30:10.534Z,0.00
2022-10-26T05:31:11.201Z,0.00
2022-10-26T05:32:10.629Z,0.00
2022-10-26T05:33:10.681Z,0.00
2022-10-26T05:34:10.752Z,0.00
2022-10-26T05:35:10.776Z,0.00
2022-10-26T05:36:10.825Z,0.00
2022-10-26T05:37:10.874Z,0.00
2022-10-26T05:38:11.040Z,0.00
2022-10-26T05:39:11.083Z,0.00
2022-10-26T05:40:11.736Z,0.00
2022-10-26T05:41:11.112Z,0.00
2022-10-26T05:42:11.162Z,0.00
2022-10-26T05:43:11.207Z,0.00
2022-10-26T05:44:11.331Z,0.00
2022-10-26T05:45:11.308Z,0.00
2022-10-26T05:46:11.321Z,0.00
2022-10-26T05:47:11.451Z,0.00
2022-10-26T05:48:11.444Z,0.00
2022-10-26T05:49:11.494Z,0.00
2022-10-26T05:50:11.543Z,0.00
2022-10-26T05:51:11.659Z,0.00
2022-10-26T05:52:11.626Z,0.00
2022-10-26T05:53:11.693Z,0.00
2022-10-26T05:54:13.909Z,0.00
2022-10-26T05:55:11.873Z,0.00
2022-10-26T05:56:11.897Z,0.00
2022-10-26T05:57:11.901Z,0.00
2022-10-26T05:58:11.916Z,0.00
2022-10-26T05:59:12.011Z,0.00
2022-10-26T06:00:12.052Z,0.00
2022-10-26T06:01:12.184Z,0.00
2022-10-26T06:02:12.214Z,0.00
2022-10-26T06:03:12.203Z,0.00
2022-10-26T06:04:12.213Z,0.00
2022-10-26T06:05:12.246Z,0.00
2022-10-26T06:06:12.324Z,0.00
2022-10-26T06:07:12.357Z,0.00
2022-10-26T06:08:12.514Z,0.00
2022-10-26T06:09:12.460Z,0.00
2022-10-26T06:10:12.518Z,0.00
2022-10-26T06:11:12.567Z,0.00
2022-10-26T06:12:14.437Z,5.63
2022-10-26T06:13:12.752Z,5.63
2022-10-26T06:14:12.798Z,5.63
2022-10-26T06:15:13.708Z,5.63
2022-10-26T06:16:12.765Z,5.63
2022-10-26T06:17:12.811Z,5.63
2022-10-26T06:18:12.895Z,5.63
2022-10-26T06:19:12.908Z,5.63
2022-10-26T06:21:13.060Z,11.25
2022-10-26T06:22:13.060Z,11.25
2022-10-26T06:23:13.134Z,11.25
2022-10-26T06:24:13.158Z,16.88
2022-10-26T06:25:13.760Z,16.88
2022-10-26T06:26:13.288Z,16.88
2022-10-26T06:27:17.009Z,16.88
2022-10-26T06:28:13.442Z,16.88
2022-10-26T06:29:13.454Z,16.88
2022-10-26T06:30:13.479Z,22.50
2022-10-26T06:31:13.545Z,22.50
2022-10-26T06:32:13.589Z,28.13
2022-10-26T06:33:24.961Z,28.13
2022-10-26T06:34:13.686Z,28.13
2022-10-26T06:35:13.726Z,33.75
2022-10-26T06:36:13.848Z,33.75
2022-10-26T06:37:13.821Z,33.75
2022-10-26T06:38:13.972Z,39.38
2022-10-26T06:39:13.927Z,39.38
2022-10-26T06:40:13.978Z,39.38
2022-10-26T06:41:14.005Z,45.00
2022-10-26T06:42:14.045Z,45.00
2022-10-26T06:43:14.176Z,50.63
2022-10-26T06:44:14.236Z,50.63
2022-10-26T06:46:15.265Z,61.88
2022-10-26T06:47:14.302Z,61.88
2022-10-26T06:48:15.251Z,61.88
2022-10-26T06:49:14.472Z,61.88
2022-10-26T06:50:15.257Z,61.88
2022-10-26T06:51:14.514Z,61.88
2022-10-26T06:52:14.582Z,61.88
2022-10-26T06:53:14.617Z,67.50
2022-10-26T06:54:15.238Z,67.50
2022-10-26T06:55:14.710Z,61.88
2022-10-26T06:56:14.769Z,56.25
2022-10-26T06:57:14.826Z,50.63
2022-10-26T06:58:15.752Z,45.00
2022-10-26T06:59:14.901Z,39.38
2022-10-26T07:00:15.802Z,33.75
2022-10-26T07:01:15.770Z,33.75
2022-10-26T07:02:15.247Z,28.13
2022-10-26T07:03:15.103Z,22.50
2022-10-26T07:04:15.766Z,22.50
2022-10-26T07:05:15.760Z,16.88
2022-10-26T07:06:15.315Z,16.88
2022-10-26T07:07:16.231Z,22.50
2022-10-26T07:08:16.279Z,22.50
2022-10-26T07:09:15.344Z,22.50
2022-10-26T07:10:15.447Z,28.13
2022-10-26T07:11:16.234Z,28.13
2022-10-26T07:12:15.540Z,28.13
2022-10-26T07:13:16.265Z,28.13
2022-10-26T07:14:15.610Z,22.50
2022-10-26T07:15:16.232Z,22.50
2022-10-26T07:16:15.714Z,22.50
2022-10-26T07:17:15.772Z,16.88
2022-10-26T07:18:16.756Z,16.88
2022-10-26T07:19:16.057Z,16.88
2022-10-26T07:20:15.882Z,16.88
2022-10-26T07:21:15.951Z,16.88
2022-10-26T07:22:16.004Z,16.88
2022-10-26T07:23:16.049Z,16.88
2022-10-26T07:24:16.077Z,16.88
2022-10-26T07:25:16.127Z,16.88
2022-10-26T07:26:16.175Z,16.88
2022-10-26T07:27:16.222Z,11.25
2022-10-26T07:28:16.294Z,11.25
2022-10-26T07:29:16.316Z,5.63
2022-10-26T07:30:16.368Z,5.63
2022-10-26T07:31:16.415Z,5.63
2022-10-26T07:32:16.490Z,5.63
2022-10-26T07:33:16.537Z,11.25
2022-10-26T07:34:16.567Z,11.25
2022-10-26T07:35:16.619Z,11.25
2022-10-26T07:36:16.681Z,11.25
2022-10-26T07:37:16.734Z,11.25
2022-10-26T07:38:16.759Z,11.25
2022-10-26T07:39:17.830Z,11.25
2022-10-26T07:40:16.893Z,11.25
2022-10-26T07:41:16.909Z,11.25
2022-10-26T07:42:16.980Z,11.25
2022-10-26T07:43:17.004Z,11.25
2022-10-26T07:44:17.053Z,11.25
2022-10-26T07:45:17.103Z,16.88
2022-10-26T07:46:17.158Z,16.88
2022-10-26T07:47:17.235Z,22.50
2022-10-26T07:48:17.247Z,22.50
2022-10-26T07:49:19.429Z,28.13
2022-10-26T07:50:17.345Z,33.75
2022-10-26T07:51:17.433Z,39.38
2022-10-26T07:52:17.442Z,45.00
2022-10-26T07:53:17.514Z,45.00
2022-10-26T07:54:17.545Z,45.00
2022-10-26T07:55:17.589Z,50.63
2022-10-26T07:56:17.666Z,50.63
2022-10-26T07:57:17.697Z,56.25
2022-10-26T07:58:17.737Z,61.88
2022-10-26T07:59:17.815Z,61.88
2022-10-26T08:00:17.850Z,67.50
2022-10-26T08:01:18.039Z,73.13
2022-10-26T08:02:17.936Z,73.13
2022-10-26T08:03:17.983Z,61.88
2022-10-26T08:04:18.056Z,50.63
2022-10-26T08:05:18.207Z,45.00
2022-10-26T08:06:18.128Z,39.38
2022-10-26T08:07:18.179Z,33.75
2022-10-26T08:08:18.267Z,33.75
2022-10-26T08:09:18.279Z,28.13
2022-10-26T08:10:18.361Z,28.13
2022-10-26T08:11:18.410Z,28.13
2022-10-26T08:12:18.584Z,28.13
2022-10-26T08:13:18.528Z,22.50
2022-10-26T08:14:18.558Z,22.50
2022-10-26T08:15:18.614Z,22.50
2022-10-26T08:16:18.665Z,22.50
2022-10-26T08:17:18.782Z,16.88
2022-10-26T08:18:18.835Z,16.88
2022-10-26T08:19:18.824Z,16.88
2022-10-26T08:20:18.866Z,16.88
2022-10-26T08:21:22.122Z,16.88
2022-10-26T08:22:18.973Z,16.88
2022-10-26T08:23:19.126Z,22.50
2022-10-26T08:24:19.039Z,28.13
2022-10-26T08:25:21.405Z,33.75
2022-10-26T08:26:19.149Z,39.38
2022-10-26T08:27:19.154Z,45.00
2022-10-26T08:28:19.246Z,50.63
2022-10-26T08:29:19.301Z,56.25
2022-10-26T08:30:19.342Z,56.25
2022-10-26T08:31:19.414Z,56.25
2022-10-26T08:32:19.447Z,50.63
2022-10-26T08:33:19.492Z,50.63
2022-10-26T08:34:19.556Z,50.63
2022-10-26T08:35:19.599Z,56.25
2022-10-26T08:36:19.724Z,61.88
2022-10-26T08:37:19.657Z,67.50
2022-10-26T08:38:19.719Z,73.13
2022-10-26T08:39:19.776Z,78.75
2022-10-26T08:40:19.821Z,78.75
2022-10-26T08:41:19.952Z,78.75
2022-10-26T08:42:19.927Z,90.00
2022-10-26T08:43:20.819Z,101.25
2022-10-26T08:44:20.089Z,106.88
2022-10-26T08:45:23.202Z,112.50
2022-10-26T08:46:20.087Z,112.50
2022-10-26T08:47:20.190Z,112.50
2022-10-26T08:48:20.250Z,106.88
2022-10-26T08:49:20.265Z,90.00
2022-10-26T08:50:20.495Z,84.38
2022-10-26T08:51:20.391Z,112.50
2022-10-26T09:27:38.789Z,427.50
2022-10-26T09:28:38.796Z,331.88
2022-10-26T09:29:38.842Z,292.50
2022-10-26T09:30:38.885Z,298.13
2022-10-26T09:31:42.345Z,298.13
2022-10-26T09:32:38.979Z,270.00
2022-10-26T09:33:39.028Z,230.63
2022-10-26T09:34:39.085Z,208.13
2022-10-26T09:35:39.128Z,202.50
2022-10-26T09:36:39.208Z,208.13
2022-10-26T09:37:39.255Z,180.00
2022-10-26T09:38:40.035Z,163.13
2022-10-26T09:39:39.327Z,180.00
2022-10-26T09:40:40.073Z,241.88
2022-10-26T09:41:39.421Z,388.13
2022-10-26T09:42:39.498Z,399.38
2022-10-26T09:43:39.563Z,545.63
2022-10-26T09:44:39.574Z,489.38
2022-10-26T09:45:40.347Z,427.50
2022-10-26T09:46:39.697Z,438.75
2022-10-26T09:47:39.758Z,568.13
2022-10-26T09:48:39.803Z,579.38
2022-10-26T09:49:39.823Z,658.13
2022-10-26T09:50:39.875Z,697.50
2022-10-26T09:51:39.938Z,776.25
2022-10-26T09:52:39.975Z,905.63
2022-10-26T09:53:40.055Z,1001.25
2022-10-26T09:54:40.114Z,438.75
2022-10-26T09:55:40.859Z,275.63
2022-10-26T09:56:40.855Z,241.88
2022-10-26T09:57:40.229Z,225.00
2022-10-26T09:58:40.281Z,213.75
2022-10-26T09:59:40.361Z,213.75
2022-10-26T10:00:41.354Z,225.00
2022-10-26T10:01:42.292Z,1108.13
2022-10-26T10:02:41.375Z,1068.75
2022-10-26T10:03:41.355Z,1040.63
2022-10-26T10:04:40.613Z,1096.88
2022-10-26T10:05:55.867Z,1063.13
2022-10-26T10:06:40.733Z,1085.63
2022-10-26T10:07:40.746Z,1102.50
2022-10-26T10:08:41.358Z,1018.13
2022-10-26T10:09:41.360Z,731.25
2022-10-26T10:10:40.935Z,489.38
2022-10-26T10:11:41.864Z,523.13
2022-10-26T10:12:41.008Z,613.13
2022-10-26T10:13:41.858Z,596.25
2022-10-26T10:14:41.865Z,495.00
2022-10-26T10:15:41.186Z,483.75
2022-10-26T10:16:41.222Z,360.00
2022-10-26T10:17:41.303Z,545.63
2022-10-26T10:18:41.356Z,202.50
2022-10-26T10:19:42.364Z,652.50
2022-10-26T10:20:42.373Z,376.88
2022-10-26T10:21:41.530Z,180.00
2022-10-26T10:22:42.361Z,225.00
2022-10-26T10:23:42.364Z,180.00
2022-10-26T10:24:42.364Z,174.38
2022-10-26T10:25:42.363Z,213.75
2022-10-26T10:26:41.793Z,191.25
2022-10-26T10:27:41.813Z,174.38
2022-10-26T10:28:42.374Z,196.88
2022-10-26T10:29:42.878Z,247.50
2022-10-26T10:30:42.869Z,579.38
2022-10-26T10:31:42.047Z,810.00
2022-10-26T10:32:42.082Z,781.88
2022-10-26T10:33:42.161Z,669.38
2022-10-26T10:34:42.871Z,753.75
2022-10-26T10:35:42.871Z,826.88
2022-10-26T10:36:42.296Z,838.13
2022-10-26T10:37:42.872Z,630.00
2022-10-26T10:38:42.429Z,500.63
2022-10-26T10:39:42.458Z,450.00
2022-10-26T10:40:43.376Z,444.38
2022-10-26T10:41:43.373Z,832.50
2022-10-26T10:42:43.372Z,641.25
2022-10-26T10:43:42.703Z,933.75
2022-10-26T10:44:43.377Z,939.38
2022-10-26T10:45:42.784Z,956.25
2022-10-26T10:46:42.845Z,950.63
2022-10-26T10:47:42.903Z,950.63
2022-10-26T10:48:43.058Z,956.25
2022-10-26T10:49:43.042Z,990.00
2022-10-26T10:50:43.241Z,978.75
2022-10-26T10:51:43.165Z,810.00
2022-10-26T10:52:43.927Z,1068.75
2022-10-26T10:53:43.943Z,753.75
2022-10-26T10:54:43.903Z,618.75
2022-10-26T10:55:43.467Z,466.88
2022-10-26T10:56:44.426Z,590.63
2022-10-26T10:57:43.555Z,388.13
2022-10-26T10:58:43.555Z,326.25
2022-10-26T10:59:44.441Z,320.63
2022-10-26T11:00:44.436Z,348.75
2022-10-26T11:01:44.534Z,337.50
2022-10-26T11:02:43.857Z,360.00
2022-10-26T11:03:44.434Z,416.25
2022-10-26T11:04:43.889Z,337.50
2022-10-26T11:05:44.954Z,562.50
2022-10-26T11:06:43.999Z,337.50
2022-10-26T11:07:44.122Z,399.38
2022-10-26T11:08:44.115Z,303.75
2022-10-26T11:09:44.232Z,348.75
2022-10-26T11:10:44.258Z,371.25
2022-10-26T11:11:45.758Z,348.75
2022-10-26T11:12:45.001Z,320.63
2022-10-26T11:13:44.946Z,315.00
2022-10-26T11:14:46.377Z,343.13
2022-10-26T11:15:44.487Z,376.88
2022-10-26T11:16:44.540Z,421.88
2022-10-26T11:17:44.593Z,528.75
2022-10-26T11:18:44.613Z,562.50
2022-10-26T11:19:45.395Z,697.50
2022-10-26T11:20:45.479Z,534.38
2022-10-26T11:21:45.394Z,478.13
2022-10-26T11:22:44.892Z,556.88
2022-10-26T11:23:45.394Z,433.13
2022-10-26T11:24:45.896Z,596.25
2022-10-26T11:25:45.020Z,680.63
2022-10-26T11:26:46.389Z,770.63
2022-10-26T11:27:45.118Z,888.75
2022-10-26T11:28:45.901Z,883.13
2022-10-26T11:29:48.590Z,646.88
2022-10-26T11:30:45.903Z,663.75
2022-10-26T11:31:45.326Z,455.63
2022-10-26T11:32:45.400Z,765.00
2022-10-26T11:33:45.453Z,376.88
2022-10-26T11:34:46.398Z,483.75
2022-10-26T11:35:46.398Z,472.50
2022-10-26T11:36:45.601Z,405.00
2022-10-26T11:37:45.687Z,641.25
2022-10-26T11:38:56.393Z,793.13
2022-10-26T11:39:45.784Z,826.88
2022-10-26T11:40:46.456Z,821.25
2022-10-26T11:41:46.457Z,815.63
2022-10-26T11:42:46.051Z,810.00
2022-10-26T11:43:46.966Z,810.00
2022-10-26T11:44:50.411Z,810.00
2022-10-26T11:45:46.961Z,804.38
2022-10-26T11:46:46.224Z,798.75
2022-10-26T11:47:46.276Z,770.63
2022-10-26T11:48:46.939Z,765.00
2022-10-26T11:49:47.001Z,753.75
2022-10-26T11:50:46.951Z,742.50
2022-10-26T11:51:46.586Z,725.63
2022-10-26T11:52:46.626Z,714.38
2022-10-26T11:53:47.446Z,708.75
2022-10-26T11:54:46.745Z,703.13
2022-10-26T11:55:47.415Z,680.63
2022-10-26T11:56:46.750Z,680.63
2022-10-26T11:57:46.810Z,303.75
2022-10-26T11:58:46.866Z,590.63
2022-10-26T11:59:46.953Z,675.00
2022-10-26T12:00:47.917Z,675.00
2022-10-26T12:01:47.939Z,579.38
2022-10-26T12:02:47.119Z,686.25
2022-10-26T12:03:47.157Z,646.88
2022-10-26T12:04:47.919Z,691.88
2022-10-26T12:05:47.918Z,714.38
2022-10-26T12:06:47.374Z,371.25
2022-10-26T12:07:48.169Z,517.50
2022-10-26T12:08:47.474Z,697.50
2022-10-26T12:09:48.423Z,675.00
2022-10-26T12:10:48.484Z,652.50
2022-10-26T12:11:48.451Z,630.00
2022-10-26T12:12:47.872Z,585.00
2022-10-26T12:13:47.856Z,601.88
2022-10-26T12:14:47.855Z,410.63
2022-10-26T12:16:04.368Z,495.00
2022-10-26T12:16:47.967Z,331.88
2022-10-26T12:17:49.218Z,337.50
2022-10-26T12:18:55.576Z,298.13
2022-10-26T12:19:48.986Z,236.25
2022-10-26T12:20:48.948Z,219.38
2022-10-26T12:21:48.957Z,168.75
2022-10-26T12:22:49.137Z,146.25
2022-10-26T12:23:51.748Z,135.00
2022-10-26T12:24:48.969Z,129.38
2022-10-26T12:25:48.933Z,129.38
2022-10-26T12:26:48.518Z,123.75
2022-10-26T12:28:52.344Z,129.38
2022-10-26T12:29:49.484Z,129.38
2022-10-26T12:30:48.756Z,135.00
2022-10-26T12:31:49.441Z,146.25
2022-10-26T12:32:49.115Z,146.25
2022-10-26T12:33:49.434Z,151.88
2022-10-26T12:34:48.931Z,157.50
2022-10-26T12:35:49.010Z,151.88
2022-10-26T12:36:49.039Z,157.50
2022-10-26T12:37:50.202Z,151.88
2022-10-26T12:38:49.145Z,151.88
2022-10-26T12:39:49.943Z,151.88
2022-10-26T12:40:49.292Z,140.63
2022-10-26T12:41:49.309Z,135.00
2022-10-26T12:42:49.365Z,129.38
2022-10-26T12:43:49.948Z,129.38
2022-10-26T12:44:49.470Z,129.38
2022-10-26T12:45:49.573Z,123.75
2022-10-26T12:46:50.451Z,129.38
2022-10-26T12:47:49.870Z,135.00
2022-10-26T12:48:50.443Z,129.38
2022-10-26T12:49:50.448Z,140.63
2022-10-26T12:50:50.444Z,140.63
2022-10-26T12:51:49.886Z,135.00
2022-10-26T12:52:50.890Z,129.38
2022-10-26T12:53:49.973Z,135.00
2022-10-26T12:54:50.947Z,135.00
2022-10-26T12:55:50.089Z,135.00
2022-10-26T12:56:50.104Z,140.63
2022-10-26T12:57:50.158Z,146.25
2022-10-26T12:58:50.950Z,157.50
2022-10-26T12:59:50.263Z,151.88
2022-10-26T13:00:50.341Z,146.25
2022-10-26T13:02:50.753Z,146.25
2022-10-26T13:03:51.449Z,151.88
2022-10-26T13:04:50.524Z,146.25
2022-10-26T13:05:50.576Z,135.00
2022-10-26T13:06:51.452Z,123.75
2022-10-26T13:07:50.706Z,112.50
2022-10-26T13:08:55.134Z,106.88
2022-10-26T13:09:51.450Z,106.88
2022-10-26T13:10:51.449Z,101.25
2022-10-26T13:11:50.898Z,106.88
2022-10-26T13:12:51.400Z,112.50
2022-10-26T13:13:51.952Z,129.38
2022-10-26T13:14:51.052Z,135.00
2022-10-26T13:15:51.134Z,135.00
2022-10-26T13:16:51.195Z,135.00
2022-10-26T13:17:51.232Z,135.00
2022-10-26T13:18:51.955Z,135.00
2022-10-26T13:19:51.958Z,146.25
2022-10-26T13:20:51.957Z,146.25
2022-10-26T13:21:51.421Z,135.00
2022-10-26T13:22:51.805Z,123.75
2022-10-26T13:23:51.554Z,118.13
2022-10-26T13:24:52.460Z,106.88
2022-10-26T13:26:52.461Z,101.25
2022-10-26T13:27:52.027Z,95.63
2022-10-26T13:28:51.818Z,95.63
2022-10-26T13:29:51.835Z,95.63
2022-10-26T13:30:52.465Z,95.63
2022-10-26T13:31:51.942Z,95.63
2022-10-26T13:32:52.963Z,95.63
2022-10-26T13:33:52.076Z,90.00
2022-10-26T13:34:52.097Z,90.00
2022-10-26T13:35:52.963Z,90.00
2022-10-26T13:36:52.963Z,90.00
2022-10-26T13:37:53.347Z,90.00
2022-10-26T13:38:52.331Z,90.00
2022-10-26T13:39:52.357Z,90.00
2022-10-26T13:40:52.965Z,90.00
2022-10-26T13:41:52.463Z,90.00
2022-10-26T13:42:53.471Z,84.38
2022-10-26T13:43:53.473Z,84.38
2022-10-26T13:44:52.658Z,84.38
2022-10-26T13:45:53.469Z,84.38
2022-10-26T13:46:52.716Z,84.38
2022-10-26T13:47:52.971Z,84.38
2022-10-26T13:48:53.467Z,84.38
2022-10-26T13:49:52.900Z,84.38
2022-10-26T13:50:53.545Z,84.38
2022-10-26T13:51:52.974Z,84.38
2022-10-26T13:52:53.327Z,84.38
2022-10-26T13:53:53.972Z,84.38
2022-10-26T13:54:53.170Z,84.38
2022-10-26T13:55:53.978Z,84.38
2022-10-26T13:56:53.240Z,84.38
2022-10-26T13:57:53.283Z,84.38
2022-10-26T13:58:53.977Z,84.38
2022-10-26T13:59:53.411Z,84.38
2022-10-26T14:00:53.515Z,84.38
2022-10-26T14:01:54.559Z,84.38
2022-10-26T14:02:54.475Z,84.38
2022-10-26T14:03:53.591Z,78.75
2022-10-26T14:04:53.680Z,78.75
2022-10-26T14:05:54.477Z,78.75
2022-10-26T14:06:53.770Z,78.75
2022-10-26T14:07:56.845Z,78.75
2022-10-26T14:08:54.476Z,78.75
2022-10-26T14:09:54.494Z,78.75
2022-10-26T14:10:53.983Z,78.75
2022-10-26T14:11:54.981Z,78.75
2022-10-26T14:12:54.148Z,78.75
2022-10-26T14:13:54.112Z,78.75
2022-10-26T14:14:54.187Z,78.75
2022-10-26T14:15:55.005Z,78.75
2022-10-26T14:16:54.295Z,78.75
2022-10-26T14:17:54.979Z,78.75
2022-10-26T14:18:54.374Z,73.13
2022-10-26T14:19:54.417Z,73.13
2022-10-26T14:20:54.980Z,73.13
2022-10-26T14:21:54.555Z,73.13
2022-10-26T14:22:55.483Z,73.13
2022-10-26T14:23:55.488Z,73.13
2022-10-26T14:25:59.072Z,73.13
2022-10-26T14:26:54.805Z,73.13
2022-10-26T14:27:54.858Z,73.13
2022-10-26T14:28:55.484Z,73.13
2022-10-26T14:30:20.336Z,73.13
2022-10-26T14:30:54.983Z,67.50
2022-10-26T14:31:55.065Z,67.50
2022-10-26T14:32:55.986Z,67.50
2022-10-26T14:33:56.002Z,67.50
2022-10-26T14:34:55.191Z,67.50
2022-10-26T14:35:55.997Z,67.50
2022-10-26T14:36:55.321Z,67.50
2022-10-26T14:37:55.369Z,67.50
2022-10-26T14:38:55.395Z,61.88
2022-10-26T14:39:55.444Z,61.88
2022-10-26T14:40:56.503Z,61.88
2022-10-26T14:41:55.575Z,61.88
2022-10-26T14:42:55.646Z,61.88
2022-10-26T14:43:56.493Z,61.88
2022-10-26T14:44:55.705Z,61.88
2022-10-26T14:45:56.492Z,61.88
2022-10-26T14:46:56.496Z,61.88
2022-10-26T14:47:55.883Z,61.88
2022-10-26T14:48:55.932Z,61.88
2022-10-26T14:49:56.547Z,61.88
2022-10-26T14:50:56.997Z,56.25
2022-10-26T14:51:56.994Z,56.25
2022-10-26T14:52:56.138Z,56.25
2022-10-26T14:53:56.197Z,56.25
2022-10-26T14:54:56.219Z,56.25
2022-10-26T14:55:56.994Z,56.25
2022-10-26T14:56:56.996Z,56.25
2022-10-26T14:57:57.003Z,56.25
2022-10-26T14:58:56.456Z,56.25
2022-10-26T14:59:56.477Z,56.25
2022-10-26T15:00:57.572Z,56.25
2022-10-26T15:01:56.701Z,56.25
2022-10-26T15:02:57.508Z,56.25
2022-10-26T15:03:56.724Z,56.25
2022-10-26T15:04:56.730Z,56.25
2022-10-26T15:05:57.503Z,56.25
2022-10-26T15:06:57.506Z,50.63
2022-10-26T15:07:56.893Z,50.63
2022-10-26T15:08:57.499Z,50.63
2022-10-26T15:09:57.018Z,50.63
2022-10-26T15:11:18.066Z,50.63
2022-10-26T15:11:57.089Z,50.63
2022-10-26T15:12:58.011Z,50.63
2022-10-26T15:13:57.192Z,50.63
2022-10-26T15:14:57.274Z,45.00
2022-10-26T15:15:58.562Z,45.00
2022-10-26T15:16:58.008Z,45.00
2022-10-26T15:17:57.422Z,45.00
2022-10-26T15:18:58.007Z,45.00
2022-10-26T15:19:57.524Z,39.38
2022-10-26T15:20:57.597Z,39.38
2022-10-26T15:21:57.598Z,39.38
2022-10-26T15:22:58.508Z,39.38
2022-10-26T15:23:57.702Z,39.38
2022-10-26T15:24:58.516Z,39.38
2022-10-26T15:25:57.827Z,39.38
2022-10-26T15:26:57.862Z,33.75
2022-10-26T15:27:57.904Z,33.75
2022-10-26T15:28:57.955Z,33.75
2022-10-26T15:29:58.006Z,33.75
2022-10-26T15:31:00.589Z,33.75
2022-10-26T15:31:58.176Z,33.75
2022-10-26T15:32:58.161Z,33.75
2022-10-26T15:33:59.012Z,33.75
2022-10-26T15:34:58.262Z,28.13
2022-10-26T15:35:58.333Z,28.13
2022-10-26T15:36:58.409Z,28.13
2022-10-26T15:37:58.412Z,28.13
2022-10-26T15:38:58.461Z,28.13
2022-10-26T15:39:58.526Z,28.13
2022-10-26T15:40:58.575Z,28.13
2022-10-26T15:41:58.657Z,22.50
2022-10-26T15:42:58.708Z,22.50
2022-10-26T15:43:58.726Z,22.50
2022-10-26T15:44:58.771Z,22.50
2022-10-26T15:45:58.846Z,22.50
2022-10-26T15:46:58.873Z,22.50
2022-10-26T15:47:58.926Z,16.88
2022-10-26T15:48:59.518Z,16.88
2022-10-26T15:50:00.160Z,16.88
2022-10-26T15:50:59.105Z,16.88
2022-10-26T15:51:59.157Z,16.88
2022-10-26T15:52:59.177Z,16.88
2022-10-26T15:53:59.227Z,11.25
2022-10-26T15:54:59.280Z,11.25
2022-10-26T15:55:59.360Z,11.25
2022-10-26T15:56:59.431Z,11.25
2022-10-26T15:57:59.437Z,11.25
2022-10-26T15:59:00.025Z,11.25
2022-10-26T15:59:59.647Z,11.25
2022-10-26T16:01:00.583Z,11.25
2022-10-26T16:01:59.769Z,5.63
2022-10-26T16:02:59.683Z,5.63
2022-10-26T16:03:59.729Z,5.63
2022-10-26T16:04:59.790Z,5.63
2022-10-26T16:05:59.905Z,5.63
2022-10-26T16:07:00.524Z,5.63
2022-10-26T16:07:59.937Z,5.63
2022-10-26T16:09:00.020Z,5.63
2022-10-26T16:10:00.042Z,5.63
2022-10-26T16:11:01.023Z,5.63
2022-10-26T16:12:00.136Z,0.00
2022-10-26T16:13:01.025Z,0.00
2022-10-26T16:14:03.506Z,0.00
2022-10-26T16:15:05.597Z,0.00
2022-10-26T16:16:00.341Z,0.00
2022-10-26T16:17:00.420Z,0.00
2022-10-26T16:18:00.448Z,0.00
2022-10-26T16:20:02.278Z,0.00
2022-10-26T16:21:01.530Z,0.00
2022-10-26T16:22:00.720Z,0.00
2022-10-26T16:23:00.688Z,0.00
2022-10-26T16:24:00.741Z,0.00
2022-10-26T16:25:00.788Z,0.00
2022-10-26T16:26:00.839Z,0.00
2022-10-26T16:27:00.923Z,0.00
2022-10-26T16:28:00.938Z,0.00
2022-10-26T16:29:00.991Z,0.00
2022-10-26T16:30:01.044Z,0.00
2022-10-26T16:31:01.086Z,0.00
2022-10-26T16:32:01.171Z,0.00
2022-10-26T16:33:01.189Z,0.00
2022-10-26T16:34:03.987Z,0.00
2022-10-26T16:35:01.289Z,0.00
2022-10-26T16:36:01.352Z,0.00
2022-10-26T16:37:01.412Z,0.00
2022-10-26T16:38:01.439Z,0.00
2022-10-26T16:40:01.541Z,0.00
2022-10-26T16:41:01.627Z,0.00
2022-10-26T16:42:01.636Z,0.00
2022-10-26T16:43:01.691Z,0.00
2022-10-26T16:44:01.737Z,0.00
2022-10-26T16:45:02.945Z,0.00
2022-10-26T16:46:01.862Z,0.00
2022-10-26T16:47:01.888Z,0.00
2022-10-26T16:48:01.985Z,0.00
2022-10-26T16:49:01.987Z,0.00
2022-10-26T16:50:02.038Z,0.00
2022-10-26T16:51:02.087Z,0.00
2022-10-26T16:52:02.170Z,0.00
2022-10-26T16:53:02.222Z,0.00
2022-10-26T16:54:02.236Z,0.00
2022-10-26T16:55:02.289Z,0.00
2022-10-26T16:56:02.334Z,0.00
2022-10-26T16:57:02.419Z,0.00
2022-10-26T16:58:02.437Z,0.00
2022-10-26T16:59:02.486Z,0.00
2022-10-26T17:00:02.534Z,0.00
2022-10-26T17:01:04.331Z,0.00
2022-10-26T17:02:02.843Z,0.00
2022-10-26T17:03:02.684Z,0.00
2022-10-26T17:05:06.035Z,0.00
2022-10-26T17:06:03.268Z,0.00
2022-10-26T17:07:02.904Z,0.00
2022-10-26T17:08:02.979Z,0.00
2022-10-26T17:09:02.978Z,0.00
2022-10-26T17:10:03.030Z,0.00
2022-10-26T17:11:03.079Z,0.00
2022-10-26T17:12:03.126Z,0.00
2022-10-26T17:13:03.209Z,0.00
2022-10-26T17:14:03.223Z,0.00
2022-10-26T17:15:03.319Z,0.00
2022-10-26T17:16:04.052Z,0.00
2022-10-26T17:17:03.374Z,0.00
2022-10-26T17:18:03.425Z,0.00
2022-10-26T17:19:03.472Z,0.00
2022-10-26T17:20:03.552Z,0.00
2022-10-26T17:21:03.604Z,0.00
2022-10-26T17:22:05.148Z,0.00
2022-10-26T17:23:03.675Z,0.00
2022-10-26T17:24:03.721Z,0.00
2022-10-26T17:25:03.776Z,0.00
2022-10-26T17:26:03.847Z,0.00
2022-10-26T17:27:03.872Z,0.00
2022-10-26T17:28:03.949Z,0.00
2022-10-26T17:29:04.029Z,0.00
2022-10-26T17:30:04.014Z,0.00
2022-10-26T17:31:04.072Z,0.00
2022-10-26T17:32:04.119Z,0.00
2022-10-26T17:33:04.189Z,0.00
2022-10-26T17:34:04.248Z,0.00
2022-10-26T17:35:04.296Z,0.00
2022-10-26T17:36:04.318Z,0.00
2022-10-26T17:37:04.371Z,0.00
2022-10-26T17:38:04.414Z,0.00
2022-10-26T17:39:04.463Z,0.00
2022-10-26T17:40:04.571Z,0.00
2022-10-26T17:41:05.557Z,0.00
2022-10-26T17:42:04.614Z,0.00
2022-10-26T17:43:04.660Z,0.00
2022-10-26T17:44:04.711Z,0.00
2022-10-26T17:45:25.812Z,0.00
2022-10-26T17:46:04.811Z,0.00
2022-10-26T17:47:04.858Z,0.00
2022-10-26T17:48:04.908Z,0.00
2022-10-26T17:49:04.957Z,0.00
2022-10-26T17:50:05.035Z,0.00
2022-10-26T17:51:05.056Z,0.00
2022-10-26T17:52:05.105Z,0.00
2022-10-26T17:53:05.180Z,0.00
2022-10-26T17:54:05.327Z,0.00
2022-10-26T17:55:05.251Z,0.00
2022-10-26T17:56:05.325Z,0.00
2022-10-26T17:57:05.347Z,0.00
2022-10-26T17:58:05.395Z,0.00
2022-10-26T17:59:05.480Z,0.00
2022-10-26T18:00:05.528Z,0.00
2022-10-26T18:01:05.641Z,0.00
2022-10-26T18:02:06.676Z,0.00
2022-10-26T18:03:05.649Z,0.00
2022-10-26T18:04:05.692Z,0.00
2022-10-26T18:05:06.923Z,0.00
2022-10-26T18:06:06.751Z,0.00
2022-10-26T18:07:06.282Z,0.00
2022-10-26T18:08:05.891Z,0.00
2022-10-26T18:09:05.947Z,0.00
2022-10-26T18:10:19.608Z,0.00
2022-10-26T18:11:06.039Z,0.00
2022-10-26T18:12:06.123Z,0.00
2022-10-26T18:13:06.141Z,0.00
2022-10-26T18:14:06.223Z,0.00
2022-10-26T18:15:06.235Z,0.00
2022-10-26T18:16:06.287Z,0.00
2022-10-26T18:17:07.066Z,0.00
2022-10-26T18:18:06.400Z,0.00
2022-10-26T18:19:06.482Z,0.00
2022-10-26T18:20:07.068Z,0.00
2022-10-26T18:21:06.527Z,0.00
2022-10-26T18:22:06.577Z,0.00
2022-10-26T18:23:07.576Z,0.00
2022-10-26T18:24:06.721Z,0.00
2022-10-26T18:25:07.573Z,0.00
2022-10-26T18:26:11.301Z,0.00
2022-10-26T18:27:06.832Z,0.00
2022-10-26T18:28:07.614Z,0.00
2022-10-26T18:29:06.956Z,0.00
2022-10-26T18:30:07.011Z,0.00
2022-10-26T18:31:07.022Z,0.00
2022-10-26T18:32:07.107Z,0.00
2022-10-26T18:33:08.079Z,0.00
2022-10-26T18:34:07.167Z,0.00
2022-10-26T18:35:07.266Z,0.00
2022-10-26T18:36:08.070Z,0.00
2022-10-26T18:37:08.072Z,0.00
2022-10-26T18:38:07.390Z,0.00
2022-10-26T18:39:07.412Z,0.00
2022-10-26T18:40:08.072Z,0.00
2022-10-26T18:41:07.512Z,0.00
2022-10-26T18:42:07.589Z,0.00
2022-10-26T18:43:07.610Z,0.00
2022-10-26T18:44:07.688Z,0.00
2022-10-26T18:45:07.753Z,0.00
2022-10-26T18:46:08.575Z,0.00
2022-10-26T18:47:07.814Z,0.00
2022-10-26T18:48:07.858Z,0.00
2022-10-26T18:49:07.933Z,0.00